createdAt,value
2018-11-26T00:00:03.348Z,23.49
2018-11-26T00:01:56.315Z,23.48
2018-11-26T00:02:56.330Z,23.48
2018-11-26T00:04:49.279Z,23.51
2018-11-26T00:05:49.312Z,23.48
2018-11-26T00:07:42.761Z,23.51
2018-11-26T00:08:42.786Z,23.52
2018-11-26T00:10:35.738Z,23.51
2018-11-26T00:11:35.770Z,23.45
2018-11-26T00:13:28.730Z,23.49
2018-11-26T00:14:28.755Z,23.44
2018-11-26T00:16:21.714Z,23.44
2018-11-26T00:17:21.741Z,23.33
2018-11-26T00:19:15.183Z,23.36
2018-11-26T00:20:15.218Z,23.47
2018-11-26T00:22:08.175Z,23.44
2018-11-26T00:23:08.199Z,23.42
2018-11-26T00:25:01.652Z,23.40
2018-11-26T00:26:01.686Z,23.45
2018-11-26T00:27:54.643Z,23.37
2018-11-26T00:28:54.667Z,23.40
2018-11-26T00:30:47.617Z,23.32
2018-11-26T00:31:47.650Z,23.42
2018-11-26T00:33:40.610Z,23.37
2018-11-26T00:34:40.633Z,23.37
2018-11-26T00:36:33.594Z,23.37
2018-11-26T00:37:33.618Z,23.36
2018-11-26T00:39:26.569Z,23.28
2018-11-26T00:40:26.602Z,23.29
2018-11-26T00:42:19.564Z,23.28
2018-11-26T00:43:19.592Z,23.23
2018-11-26T00:45:12.560Z,23.26
2018-11-26T00:46:12.573Z,23.29
2018-11-26T00:48:05.529Z,23.26
2018-11-26T00:49:05.556Z,23.21
2018-11-26T00:50:58.511Z,23.23
2018-11-26T00:51:58.544Z,23.16
2018-11-26T00:53:51.991Z,23.21
2018-11-26T00:54:52.015Z,23.21
2018-11-26T00:56:44.976Z,23.18
2018-11-26T00:57:45.000Z,23.17
2018-11-26T00:59:37.947Z,23.16
2018-11-26T01:00:37.982Z,23.13
2018-11-26T01:02:30.941Z,23.17
2018-11-26T01:03:30.966Z,23.10
2018-11-26T01:05:23.916Z,23.17
2018-11-26T01:06:23.949Z,23.14
2018-11-26T01:08:16.909Z,23.18
2018-11-26T01:09:16.929Z,23.11
2018-11-26T01:11:09.879Z,23.13
2018-11-26T01:12:09.913Z,23.16
2018-11-26T01:14:02.870Z,23.07
2018-11-26T01:15:02.896Z,23.07
2018-11-26T01:16:55.856Z,23.06
2018-11-26T01:17:55.881Z,23.06
2018-11-26T01:19:48.834Z,23.06
2018-11-26T01:20:48.866Z,23.02
2018-11-26T01:22:41.827Z,23.04
2018-11-26T01:23:41.853Z,23.01
2018-11-26T01:25:34.812Z,23.01
2018-11-26T01:26:34.839Z,23.04
2018-11-26T01:28:28.303Z,23.07
2018-11-26T01:29:28.337Z,23.10
2018-11-26T01:31:21.281Z,23.06
2018-11-26T01:32:21.313Z,23.08
2018-11-26T01:34:14.274Z,23.02
2018-11-26T01:35:14.299Z,23.06
2018-11-26T01:37:07.247Z,23.07
2018-11-26T01:38:07.286Z,23.07
2018-11-26T01:40:00.239Z,22.99
2018-11-26T01:41:00.261Z,22.98
2018-11-26T01:42:53.221Z,23.02
2018-11-26T01:43:53.243Z,23.04
2018-11-26T01:45:46.198Z,23.10
2018-11-26T01:46:46.230Z,22.99
2018-11-26T01:48:39.681Z,23.08
2018-11-26T01:49:39.704Z,23.04
2018-11-26T01:51:32.657Z,22.99
2018-11-26T01:52:32.688Z,22.98
2018-11-26T01:54:25.655Z,23.06
2018-11-26T01:55:25.669Z,22.99
2018-11-26T01:57:18.620Z,22.92
2018-11-26T01:58:18.653Z,23.01
2018-11-26T02:00:11.609Z,22.92
2018-11-26T02:01:11.633Z,22.96
2018-11-26T02:03:05.087Z,22.99
2018-11-26T02:04:05.110Z,23.01
2018-11-26T02:05:58.061Z,22.93
2018-11-26T02:06:58.092Z,22.98
2018-11-26T02:08:51.540Z,22.93
2018-11-26T02:09:51.567Z,22.88
2018-11-26T02:11:45.008Z,22.93
2018-11-26T02:12:45.038Z,22.83
2018-11-26T02:14:37.999Z,22.86
2018-11-26T02:15:38.030Z,22.81
2018-11-26T02:17:30.982Z,22.92
2018-11-26T02:18:31.011Z,22.81
2018-11-26T02:20:23.967Z,22.83
2018-11-26T02:21:23.992Z,22.84
2018-11-26T02:23:16.950Z,22.93
2018-11-26T02:24:16.973Z,22.88
2018-11-26T02:26:09.921Z,22.84
2018-11-26T02:27:09.954Z,22.88
2018-11-26T02:29:02.912Z,22.84
2018-11-26T02:30:02.936Z,22.81
2018-11-26T02:31:55.887Z,22.78
2018-11-26T02:32:55.919Z,22.84
2018-11-26T02:34:48.878Z,22.77
2018-11-26T02:35:48.903Z,22.86
2018-11-26T02:37:41.856Z,22.80
2018-11-26T02:38:41.893Z,22.83
2018-11-26T02:40:34.846Z,22.84
2018-11-26T02:41:34.870Z,22.83
2018-11-26T02:43:27.829Z,22.78
2018-11-26T02:44:27.853Z,22.89
2018-11-26T02:46:20.800Z,22.78
2018-11-26T02:47:20.831Z,22.70
2018-11-26T02:49:13.791Z,22.74
2018-11-26T02:50:13.815Z,22.74
2018-11-26T02:52:06.764Z,22.81
2018-11-26T02:53:06.797Z,22.74
2018-11-26T02:54:59.765Z,22.80
2018-11-26T02:55:59.784Z,22.77
2018-11-26T02:57:52.732Z,22.73
2018-11-26T02:58:52.765Z,22.76
2018-11-26T03:00:45.721Z,22.74
2018-11-26T03:01:45.748Z,22.77
2018-11-26T03:03:38.706Z,22.74
2018-11-26T03:04:38.729Z,22.73
2018-11-26T03:06:32.184Z,22.71
2018-11-26T03:07:32.218Z,22.68
2018-11-26T03:09:25.172Z,22.70
2018-11-26T03:10:25.194Z,22.63
2018-11-26T03:12:18.143Z,22.74
2018-11-26T03:13:18.177Z,22.70
2018-11-26T03:15:11.139Z,22.73
2018-11-26T03:16:11.161Z,22.67
2018-11-26T03:18:04.604Z,22.70
2018-11-26T03:19:04.634Z,22.70
2018-11-26T03:20:57.593Z,22.65
2018-11-26T03:21:57.616Z,22.65
2018-11-26T03:23:50.576Z,22.71
2018-11-26T03:24:50.603Z,22.70
2018-11-26T03:26:43.547Z,22.70
2018-11-26T03:27:43.580Z,22.67
2018-11-26T03:29:36.539Z,22.67
2018-11-26T03:30:36.564Z,22.73
2018-11-26T03:32:30.006Z,22.74
2018-11-26T03:33:30.034Z,22.68
2018-11-26T03:35:22.994Z,22.63
2018-11-26T03:36:23.020Z,22.65
2018-11-26T03:38:16.463Z,22.65
2018-11-26T03:39:16.499Z,22.65
2018-11-26T03:41:09.451Z,22.63
2018-11-26T03:42:09.479Z,22.67
2018-11-26T03:44:02.936Z,22.68
2018-11-26T03:45:02.962Z,22.67
2018-11-26T03:46:55.914Z,22.65
2018-11-26T03:47:55.945Z,22.73
2018-11-26T03:49:48.905Z,22.65
2018-11-26T03:50:48.925Z,22.61
2018-11-26T03:52:41.879Z,22.55
2018-11-26T03:53:41.911Z,22.55
2018-11-26T03:55:34.869Z,22.51
2018-11-26T03:56:34.894Z,22.62
2018-11-26T03:58:27.845Z,22.65
2018-11-26T03:59:27.880Z,22.63
2018-11-26T04:01:21.327Z,22.56
2018-11-26T04:02:21.354Z,22.51
2018-11-26T04:04:14.310Z,22.55
2018-11-26T04:05:14.332Z,22.62
2018-11-26T04:07:07.283Z,22.62
2018-11-26T04:08:07.316Z,22.65
2018-11-26T04:10:00.278Z,22.59
2018-11-26T04:11:00.301Z,22.59
2018-11-26T04:12:53.249Z,22.59
2018-11-26T04:13:53.280Z,22.55
2018-11-26T04:15:46.240Z,22.55
2018-11-26T04:16:46.263Z,22.55
2018-11-26T04:18:39.213Z,22.55
2018-11-26T04:19:39.244Z,22.47
2018-11-26T04:21:32.202Z,22.55
2018-11-26T04:22:32.227Z,22.55
2018-11-26T04:24:25.185Z,22.53
2018-11-26T04:25:25.208Z,22.55
2018-11-26T04:27:18.159Z,22.51
2018-11-26T04:28:18.192Z,22.52
2018-11-26T04:30:11.295Z,22.55
2018-11-26T04:31:11.186Z,22.52
2018-11-26T04:33:04.121Z,22.51
2018-11-26T04:34:04.153Z,22.51
2018-11-26T04:35:57.112Z,22.51
2018-11-26T04:36:57.137Z,22.53
2018-11-26T04:38:50.088Z,22.53
2018-11-26T04:39:50.122Z,22.51
2018-11-26T04:41:43.081Z,22.44
2018-11-26T04:42:43.105Z,22.51
2018-11-26T04:44:36.078Z,22.46
2018-11-26T04:45:36.091Z,22.53
2018-11-26T04:47:29.036Z,22.47
2018-11-26T04:48:29.067Z,22.46
2018-11-26T04:50:22.031Z,22.49
2018-11-26T04:51:22.053Z,22.51
2018-11-26T04:53:15.002Z,22.51
2018-11-26T04:54:15.035Z,22.43
2018-11-26T04:56:07.992Z,22.47
2018-11-26T04:57:08.018Z,22.43
2018-11-26T04:59:00.967Z,22.40
2018-11-26T05:00:00.998Z,22.41
2018-11-26T05:01:53.955Z,22.46
2018-11-26T05:02:53.980Z,22.41
2018-11-26T05:04:46.930Z,22.38
2018-11-26T05:05:46.963Z,22.51
2018-11-26T05:07:39.921Z,22.40
2018-11-26T05:08:39.943Z,22.43
2018-11-26T05:10:32.902Z,22.51
2018-11-26T05:11:32.928Z,22.46
2018-11-26T05:13:25.874Z,22.46
2018-11-26T05:14:25.907Z,22.52
2018-11-26T05:16:18.866Z,22.41
2018-11-26T05:17:18.889Z,22.52
2018-11-26T05:19:11.838Z,22.52
2018-11-26T05:20:11.872Z,22.61
2018-11-26T05:22:04.829Z,22.61
2018-11-26T05:23:04.853Z,22.65
2018-11-26T05:24:57.805Z,22.62
2018-11-26T05:25:57.837Z,22.65
2018-11-26T05:27:50.794Z,22.67
2018-11-26T05:28:50.817Z,22.67
2018-11-26T05:30:43.776Z,22.68
2018-11-26T05:31:43.796Z,22.73
2018-11-26T05:33:36.748Z,22.76
2018-11-26T05:34:36.782Z,22.84
2018-11-26T05:36:29.740Z,22.73
2018-11-26T05:37:29.765Z,22.76
2018-11-26T05:39:22.714Z,22.81
2018-11-26T05:40:22.744Z,22.74
2018-11-26T05:42:15.705Z,22.71
2018-11-26T05:43:15.728Z,22.84
2018-11-26T05:45:08.689Z,22.81
2018-11-26T05:46:08.716Z,22.81
2018-11-26T05:48:01.683Z,22.95
2018-11-26T05:49:01.695Z,22.98
2018-11-26T05:50:54.651Z,23.01
2018-11-26T05:51:54.677Z,22.98
2018-11-26T05:53:47.631Z,23.06
2018-11-26T05:54:47.665Z,22.93
2018-11-26T05:56:40.622Z,23.07
2018-11-26T05:57:40.643Z,23.02
2018-11-26T05:59:33.592Z,23.07
2018-11-26T06:00:33.627Z,23.04
2018-11-26T06:02:26.583Z,23.06
2018-11-26T06:03:26.609Z,23.08
2018-11-26T06:05:19.559Z,23.18
2018-11-26T06:06:19.590Z,23.16
2018-11-26T06:08:13.051Z,23.17
2018-11-26T06:09:13.065Z,23.10
2018-11-26T06:11:06.024Z,23.16
2018-11-26T06:12:06.048Z,23.16
2018-11-26T06:13:59.004Z,23.18
2018-11-26T06:14:59.032Z,23.14
2018-11-26T06:16:53.738Z,23.16
2018-11-26T06:17:52.522Z,23.18
2018-11-26T06:19:45.473Z,23.14
2018-11-26T06:20:45.508Z,23.21
2018-11-26T06:22:38.969Z,23.18
2018-11-26T06:23:38.995Z,23.25
2018-11-26T06:25:31.952Z,23.25
2018-11-26T06:26:31.979Z,23.28
2018-11-26T06:28:24.944Z,23.29
2018-11-26T06:29:24.967Z,23.26
2018-11-26T06:31:17.926Z,23.29
2018-11-26T06:32:17.950Z,23.39
2018-11-26T06:34:10.905Z,23.36
2018-11-26T06:35:10.937Z,23.39
2018-11-26T06:37:03.894Z,23.45
2018-11-26T06:38:03.915Z,23.42
2018-11-26T06:39:57.372Z,23.42
2018-11-26T06:40:57.403Z,23.36
2018-11-26T06:42:50.365Z,23.37
2018-11-26T06:43:50.389Z,23.44
2018-11-26T06:45:43.342Z,23.44
2018-11-26T06:46:43.375Z,23.36
2018-11-26T06:48:36.333Z,23.13
2018-11-26T06:49:36.357Z,23.26
2018-11-26T06:51:29.316Z,23.37
2018-11-26T06:52:29.339Z,23.37
2018-11-26T06:54:22.950Z,23.51
2018-11-26T06:55:22.324Z,23.52
2018-11-26T06:57:15.277Z,23.49
2018-11-26T06:58:15.303Z,23.55
2018-11-26T07:00:08.256Z,23.52
2018-11-26T07:01:08.289Z,23.52
2018-11-26T07:03:01.251Z,23.56
2018-11-26T07:04:01.276Z,23.66
2018-11-26T07:05:54.717Z,23.63
2018-11-26T07:06:54.751Z,23.71
2018-11-26T07:08:48.205Z,23.66
2018-11-26T07:09:48.225Z,23.73
2018-11-26T07:11:41.188Z,23.70
2018-11-26T07:12:41.211Z,23.77
2018-11-26T07:14:34.670Z,23.77
2018-11-26T07:15:34.698Z,23.79
2018-11-26T07:17:27.660Z,23.74
2018-11-26T07:18:27.682Z,23.77
2018-11-26T07:20:20.634Z,23.82
2018-11-26T07:21:20.667Z,23.88
2018-11-26T07:23:13.627Z,23.84
2018-11-26T07:24:13.651Z,23.91
2018-11-26T07:26:06.609Z,23.92
2018-11-26T07:27:06.638Z,23.99
2018-11-26T07:28:59.596Z,23.92
2018-11-26T07:29:59.622Z,23.91
2018-11-26T07:31:52.581Z,23.92
2018-11-26T07:32:52.609Z,23.95
2018-11-26T07:34:45.562Z,24.00
2018-11-26T07:35:45.592Z,23.95
2018-11-26T07:37:39.045Z,23.95
2018-11-26T07:38:39.978Z,23.94
2018-11-26T07:40:32.513Z,24.00
2018-11-26T07:41:32.545Z,23.99
2018-11-26T07:43:25.502Z,24.03
2018-11-26T07:44:25.529Z,23.99
2018-11-26T07:46:18.484Z,24.10
2018-11-26T07:47:18.514Z,24.01
2018-11-26T07:49:11.475Z,24.09
2018-11-26T07:50:11.505Z,24.09
2018-11-26T07:52:04.461Z,24.01
2018-11-26T07:53:04.484Z,24.09
2018-11-26T07:54:57.929Z,24.03
2018-11-26T07:55:57.962Z,24.11
2018-11-26T07:57:51.416Z,24.13
2018-11-26T07:58:51.439Z,24.13
2018-11-26T08:00:44.394Z,24.13
2018-11-26T08:01:44.426Z,24.07
2018-11-26T08:03:37.391Z,24.10
2018-11-26T08:04:37.415Z,24.10
2018-11-26T08:06:30.367Z,24.10
2018-11-26T08:07:30.399Z,24.13
2018-11-26T08:09:23.357Z,24.13
2018-11-26T08:10:23.386Z,24.11
2018-11-26T08:12:16.346Z,24.13
2018-11-26T08:13:16.367Z,24.11
2018-11-26T08:15:09.327Z,24.19
2018-11-26T08:16:09.356Z,24.19
2018-11-26T08:18:02.314Z,24.22
2018-11-26T08:19:02.340Z,24.21
2018-11-26T08:20:55.294Z,24.21
2018-11-26T08:21:55.327Z,24.19
2018-11-26T08:23:48.284Z,24.22
2018-11-26T08:24:48.309Z,24.22
2018-11-26T08:26:41.262Z,24.21
2018-11-26T08:27:41.295Z,24.18
2018-11-26T08:29:34.254Z,24.25
2018-11-26T08:30:34.277Z,24.22
2018-11-26T08:32:27.754Z,24.25
2018-11-26T08:33:27.287Z,24.16
2018-11-26T08:35:20.220Z,24.24
2018-11-26T08:36:20.263Z,24.18
2018-11-26T08:38:13.709Z,24.24
2018-11-26T08:39:13.730Z,24.18
2018-11-26T08:41:06.681Z,24.24
2018-11-26T08:42:06.715Z,24.19
2018-11-26T08:44:01.048Z,24.22
2018-11-26T08:45:00.206Z,24.18
2018-11-26T08:46:53.145Z,24.21
2018-11-26T08:47:53.178Z,24.18
2018-11-26T08:49:46.138Z,24.22
2018-11-26T08:50:46.162Z,24.26
2018-11-26T08:52:39.124Z,24.26
2018-11-26T08:53:39.149Z,24.28
2018-11-26T08:55:32.145Z,24.24
2018-11-26T08:56:32.135Z,24.25
2018-11-26T08:58:25.599Z,24.26
2018-11-26T08:59:25.623Z,24.25
2018-11-26T09:01:18.578Z,24.22
2018-11-26T09:02:18.610Z,24.25
2018-11-26T09:04:11.571Z,24.24
2018-11-26T09:05:11.598Z,24.26
2018-11-26T09:07:05.054Z,24.25
2018-11-26T09:08:05.089Z,24.19
2018-11-26T09:09:58.539Z,24.24
2018-11-26T09:10:58.565Z,24.32
2018-11-26T09:12:51.526Z,24.24
2018-11-26T09:13:51.551Z,24.21
2018-11-26T09:15:44.512Z,24.32
2018-11-26T09:16:44.538Z,24.31
2018-11-26T09:18:37.500Z,24.34
2018-11-26T09:19:37.525Z,24.37
2018-11-26T09:21:30.482Z,24.36
2018-11-26T09:22:30.515Z,24.40
2018-11-26T09:24:23.474Z,24.41
2018-11-26T09:25:23.502Z,24.46
2018-11-26T09:27:16.461Z,24.44
2018-11-26T09:28:16.491Z,24.46
2018-11-26T09:30:09.449Z,24.46
2018-11-26T09:31:09.480Z,24.36
2018-11-26T09:33:02.427Z,24.46
2018-11-26T09:34:02.461Z,24.51
2018-11-26T09:35:55.421Z,24.46
2018-11-26T09:36:55.447Z,24.51
2018-11-26T09:38:48.408Z,24.48
2018-11-26T09:39:48.432Z,24.50
2018-11-26T09:41:41.876Z,24.46
2018-11-26T09:42:41.908Z,24.47
2018-11-26T09:44:34.872Z,24.43
2018-11-26T09:45:40.025Z,24.47
2018-11-26T09:47:27.852Z,24.51
2018-11-26T09:48:27.888Z,24.47
2018-11-26T09:50:20.847Z,24.46
2018-11-26T09:51:20.873Z,24.47
2018-11-26T09:53:13.825Z,24.51
2018-11-26T09:54:13.858Z,24.47
2018-11-26T09:56:07.331Z,24.55
2018-11-26T09:57:07.348Z,24.48
2018-11-26T09:59:00.308Z,24.48
2018-11-26T10:00:00.334Z,24.50
2018-11-26T10:01:53.829Z,24.47
2018-11-26T10:02:53.823Z,24.48
2018-11-26T10:04:46.788Z,24.48
2018-11-26T10:05:46.811Z,24.50
2018-11-26T10:07:40.012Z,24.48
2018-11-26T10:08:39.800Z,24.48
2018-11-26T10:10:32.764Z,24.46
2018-11-26T10:11:32.781Z,24.48
2018-11-26T10:13:26.257Z,24.48
2018-11-26T10:14:27.307Z,24.48
2018-11-26T10:16:19.223Z,24.50
2018-11-26T10:17:19.247Z,24.51
2018-11-26T10:19:12.200Z,24.47
2018-11-26T10:20:12.232Z,24.53
2018-11-26T10:22:06.192Z,24.47
2018-11-26T10:23:06.213Z,24.47
2018-11-26T10:25:05.756Z,24.43
2018-11-26T10:25:59.200Z,24.46
2018-11-26T10:27:52.645Z,24.53
2018-11-26T10:28:52.676Z,24.48
2018-11-26T10:30:46.130Z,24.48
2018-11-26T10:31:46.156Z,24.46
2018-11-26T10:33:39.114Z,24.47
2018-11-26T10:34:39.144Z,24.48
2018-11-26T10:36:32.108Z,24.56
2018-11-26T10:37:32.133Z,24.50
2018-11-26T10:39:25.587Z,24.48
2018-11-26T10:40:25.627Z,24.44
2018-11-26T10:42:19.072Z,24.47
2018-11-26T10:43:19.096Z,24.47
2018-11-26T10:45:12.059Z,24.47
2018-11-26T10:46:12.084Z,24.46
2018-11-26T10:48:05.530Z,24.47
2018-11-26T10:49:05.560Z,24.46
2018-11-26T10:50:58.523Z,24.50
2018-11-26T10:51:58.554Z,24.48
2018-11-26T10:53:51.502Z,24.48
2018-11-26T10:54:51.534Z,24.55
2018-11-26T10:56:44.495Z,24.48
2018-11-26T10:57:44.521Z,24.50
2018-11-26T10:59:37.472Z,24.48
2018-11-26T11:00:37.507Z,24.48
2018-11-26T11:02:30.475Z,24.46
2018-11-26T11:03:30.496Z,24.47
2018-11-26T11:05:23.473Z,24.46
2018-11-26T11:06:23.481Z,24.51
2018-11-26T11:08:16.431Z,24.50
2018-11-26T11:09:16.467Z,24.48
2018-11-26T11:11:09.434Z,24.50
2018-11-26T11:12:09.449Z,24.51
2018-11-26T11:14:02.407Z,24.44
2018-11-26T11:15:02.441Z,24.50
2018-11-26T11:16:55.902Z,24.48
2018-11-26T11:17:55.927Z,24.47
2018-11-26T11:19:49.373Z,24.47
2018-11-26T11:20:49.404Z,24.48
2018-11-26T11:22:42.364Z,24.47
2018-11-26T11:23:42.389Z,24.48
2018-11-26T11:25:35.361Z,24.50
2018-11-26T11:26:35.373Z,24.55
2018-11-26T11:28:28.820Z,24.53
2018-11-26T11:29:28.852Z,24.48
2018-11-26T11:31:21.809Z,24.53
2018-11-26T11:32:21.836Z,24.50
2018-11-26T11:34:14.789Z,24.50
2018-11-26T11:35:14.822Z,24.44
2018-11-26T11:37:07.781Z,24.50
2018-11-26T11:38:07.806Z,24.56
2018-11-26T11:40:00.765Z,24.48
2018-11-26T11:41:00.794Z,24.47
2018-11-26T11:42:53.753Z,24.48
2018-11-26T11:43:53.790Z,24.47
2018-11-26T11:45:46.730Z,24.47
2018-11-26T11:46:46.764Z,24.50
2018-11-26T11:48:40.215Z,24.50
2018-11-26T11:49:40.243Z,24.51
2018-11-26T11:51:33.705Z,24.46
2018-11-26T11:52:33.722Z,24.48
2018-11-26T11:54:26.673Z,24.48
2018-11-26T11:55:26.710Z,24.44
2018-11-26T11:57:19.667Z,24.43
2018-11-26T11:58:19.692Z,24.46
2018-11-26T12:00:13.137Z,24.51
2018-11-26T12:01:13.171Z,24.50
2018-11-26T12:03:06.167Z,24.47
2018-11-26T12:04:06.156Z,24.48
2018-11-26T12:05:59.603Z,24.47
2018-11-26T12:06:59.633Z,24.47
2018-11-26T12:08:53.086Z,24.43
2018-11-26T12:09:53.110Z,24.50
2018-11-26T12:11:46.556Z,24.44
2018-11-26T12:12:46.587Z,24.46
2018-11-26T12:14:39.555Z,24.50
2018-11-26T12:15:39.581Z,24.46
2018-11-26T12:17:33.032Z,24.47
2018-11-26T12:18:33.061Z,24.44
2018-11-26T12:20:26.504Z,24.48
2018-11-26T12:21:26.537Z,24.50
2018-11-26T12:23:20.001Z,24.46
2018-11-26T12:24:20.027Z,24.50
2018-11-26T12:26:12.976Z,24.44
2018-11-26T12:27:13.009Z,24.50
2018-11-26T12:29:05.971Z,24.47
2018-11-26T12:30:05.999Z,24.47
2018-11-26T12:31:58.951Z,24.47
2018-11-26T12:32:58.983Z,24.48
2018-11-26T12:34:51.951Z,24.48
2018-11-26T12:35:51.973Z,24.48
2018-11-26T12:37:45.425Z,24.51
2018-11-26T12:38:45.453Z,24.48
2018-11-26T12:40:38.895Z,24.50
2018-11-26T12:41:38.927Z,24.50
2018-11-26T12:43:31.888Z,24.50
2018-11-26T12:44:31.915Z,24.46
2018-11-26T12:46:24.874Z,24.46
2018-11-26T12:47:24.901Z,24.47
2018-11-26T12:49:17.861Z,24.48
2018-11-26T12:50:17.886Z,24.47
2018-11-26T12:52:10.837Z,24.43
2018-11-26T12:53:10.872Z,24.37
2018-11-26T12:55:04.326Z,24.43
2018-11-26T12:56:04.353Z,24.50
2018-11-26T12:57:57.313Z,24.38
2018-11-26T12:58:57.337Z,24.31
2018-11-26T13:00:50.290Z,24.28
2018-11-26T13:01:50.322Z,24.21
2018-11-26T13:03:43.285Z,24.18
2018-11-26T13:04:43.311Z,24.11
2018-11-26T13:06:36.261Z,22.77
2018-11-26T13:07:36.297Z,22.30
2018-11-26T13:09:29.757Z,22.78
2018-11-26T13:10:29.783Z,23.10
2018-11-26T13:12:22.737Z,23.37
2018-11-26T13:13:22.768Z,23.58
2018-11-26T13:15:15.729Z,23.74
2018-11-26T13:16:15.755Z,23.77
2018-11-26T13:18:09.196Z,23.88
2018-11-26T13:19:09.230Z,23.84
2018-11-26T13:21:02.192Z,23.85
2018-11-26T13:22:02.218Z,23.82
2018-11-26T13:23:55.669Z,23.86
2018-11-26T13:24:55.693Z,23.95
2018-11-26T13:26:49.138Z,24.01
2018-11-26T13:27:49.169Z,24.00
2018-11-26T13:29:42.622Z,24.06
2018-11-26T13:30:42.646Z,24.10
2018-11-26T13:32:35.607Z,24.13
2018-11-26T13:33:35.638Z,24.14
2018-11-26T13:35:29.087Z,24.18
2018-11-26T13:36:29.118Z,24.24
2018-11-26T13:38:23.125Z,24.11
2018-11-26T13:39:22.589Z,24.13
2018-11-26T13:41:16.038Z,24.22
2018-11-26T13:42:16.066Z,24.21
2018-11-26T13:44:09.146Z,24.22
2018-11-26T13:45:09.050Z,24.25
2018-11-26T13:47:02.496Z,24.22
2018-11-26T13:48:02.525Z,24.14
2018-11-26T13:49:56.100Z,23.88
2018-11-26T13:50:56.024Z,23.96
2018-11-26T13:52:49.470Z,23.91
2018-11-26T13:53:49.501Z,24.03
2018-11-26T13:55:42.961Z,24.06
2018-11-26T13:56:42.986Z,24.10
2018-11-26T13:58:36.434Z,24.07
2018-11-26T13:59:36.465Z,24.06
2018-11-26T14:01:29.921Z,24.06
2018-11-26T14:02:29.946Z,24.11
2018-11-26T14:04:23.404Z,24.04
2018-11-26T14:05:23.436Z,24.01
2018-11-26T14:07:16.893Z,24.11
2018-11-26T14:08:16.918Z,24.06
2018-11-26T14:10:10.384Z,24.11
2018-11-26T14:11:10.397Z,24.04
2018-11-26T14:13:03.856Z,24.06
2018-11-26T14:14:03.889Z,24.06
2018-11-26T14:15:59.008Z,24.07
2018-11-26T14:16:58.384Z,24.03
2018-11-26T14:18:51.834Z,24.00
2018-11-26T14:19:51.863Z,24.00
2018-11-26T14:21:45.317Z,24.03
2018-11-26T14:22:45.345Z,24.04
2018-11-26T14:24:38.791Z,24.00
2018-11-26T14:25:38.823Z,24.01
2018-11-26T14:27:32.279Z,24.01
2018-11-26T14:28:32.305Z,23.94
2018-11-26T14:30:25.768Z,23.99
2018-11-26T14:31:25.792Z,23.96
2018-11-26T14:33:19.246Z,23.96
2018-11-26T14:34:19.283Z,23.92
2018-11-26T14:36:12.745Z,23.96
2018-11-26T14:37:12.769Z,23.92
2018-11-26T14:39:06.215Z,23.96
2018-11-26T14:40:06.247Z,24.01
2018-11-26T14:41:59.703Z,23.92
2018-11-26T14:42:59.732Z,23.92
2018-11-26T14:44:53.187Z,23.92
2018-11-26T14:45:53.222Z,23.99
2018-11-26T14:47:46.670Z,23.95
2018-11-26T14:48:46.697Z,24.01
2018-11-26T14:50:40.150Z,23.91
2018-11-26T14:51:40.181Z,24.00
2018-11-26T14:53:33.634Z,23.94
2018-11-26T14:54:33.658Z,23.99
2018-11-26T14:56:27.114Z,23.96
2018-11-26T14:57:27.138Z,23.95
2018-11-26T14:59:20.586Z,24.03
2018-11-26T15:00:20.623Z,24.00
2018-11-26T15:02:14.076Z,23.86
2018-11-26T15:03:14.100Z,23.95
2018-11-26T15:05:07.551Z,23.92
2018-11-26T15:06:07.584Z,23.95
2018-11-26T15:08:01.041Z,23.94
2018-11-26T15:09:01.064Z,23.95
2018-11-26T15:10:54.510Z,23.99
2018-11-26T15:11:54.543Z,23.99
2018-11-26T15:13:47.999Z,22.81
2018-11-26T15:14:48.026Z,22.67
2018-11-26T15:16:41.489Z,23.01
2018-11-26T15:17:41.513Z,23.34
2018-11-26T15:19:34.956Z,23.48
2018-11-26T15:20:34.990Z,23.58
2018-11-26T15:22:28.458Z,23.64
2018-11-26T15:23:28.534Z,23.69
2018-11-26T15:25:22.930Z,23.77
2018-11-26T15:26:22.959Z,23.67
2018-11-26T15:28:16.417Z,23.66
2018-11-26T15:29:16.443Z,23.73
2018-11-26T15:31:09.393Z,23.66
2018-11-26T15:32:09.426Z,23.70
2018-11-26T15:34:02.881Z,23.73
2018-11-26T15:35:02.930Z,23.73
2018-11-26T15:36:56.372Z,23.74
2018-11-26T15:37:56.389Z,23.77
2018-11-26T15:39:49.338Z,23.82
2018-11-26T15:40:49.403Z,23.74
2018-11-26T15:42:42.828Z,23.62
2018-11-26T15:43:42.853Z,23.49
2018-11-26T15:45:36.289Z,22.74
2018-11-26T15:46:36.326Z,22.81
2018-11-26T15:48:29.797Z,23.25
2018-11-26T15:49:29.819Z,23.32
2018-11-26T15:51:23.277Z,23.49
2018-11-26T15:52:23.309Z,23.49
2018-11-26T15:54:16.756Z,23.64
2018-11-26T15:55:16.781Z,23.74
2018-11-26T15:57:10.227Z,23.79
2018-11-26T15:58:10.260Z,23.74
2018-11-26T16:00:03.712Z,23.76
2018-11-26T16:01:03.742Z,23.76
2018-11-26T16:02:57.193Z,23.59
2018-11-26T16:03:57.221Z,23.54
2018-11-26T16:05:50.665Z,23.40
2018-11-26T16:06:50.702Z,23.32
2018-11-26T16:08:44.150Z,23.40
2018-11-26T16:09:44.177Z,23.39
2018-11-26T16:11:37.623Z,23.42
2018-11-26T16:12:37.657Z,23.40
2018-11-26T16:14:31.114Z,23.39
2018-11-26T16:15:31.147Z,23.40
2018-11-26T16:17:24.095Z,23.36
2018-11-26T16:18:24.125Z,23.47
2018-11-26T16:20:17.578Z,23.40
2018-11-26T16:21:17.609Z,23.39
2018-11-26T16:23:11.054Z,23.26
2018-11-26T16:24:11.078Z,23.26
2018-11-26T16:26:04.541Z,23.16
2018-11-26T16:27:04.584Z,23.17
2018-11-26T16:28:58.028Z,23.14
2018-11-26T16:29:58.093Z,23.20
2018-11-26T16:31:51.494Z,23.33
2018-11-26T16:32:51.527Z,23.32
2018-11-26T16:34:44.984Z,23.28
2018-11-26T16:35:45.010Z,23.37
2018-11-26T16:37:38.456Z,23.37
2018-11-26T16:38:38.503Z,23.51
2018-11-26T16:40:32.955Z,23.63
2018-11-26T16:41:32.978Z,23.63
2018-11-26T16:43:26.428Z,23.64
2018-11-26T16:44:26.452Z,23.66
2018-11-26T16:46:19.901Z,23.74
2018-11-26T16:47:19.930Z,23.70
2018-11-26T16:49:13.399Z,23.70
2018-11-26T16:50:13.425Z,23.74
2018-11-26T16:52:06.879Z,23.64
2018-11-26T16:53:06.913Z,23.71
2018-11-26T16:55:00.392Z,23.71
2018-11-26T16:56:00.555Z,23.70
2018-11-26T16:57:53.853Z,23.55
2018-11-26T16:58:53.886Z,23.67
2018-11-26T17:00:47.351Z,23.58
2018-11-26T17:01:47.376Z,23.58
2018-11-26T17:03:40.830Z,23.69
2018-11-26T17:04:40.859Z,23.69
2018-11-26T17:06:34.316Z,23.69
2018-11-26T17:07:34.347Z,23.74
2018-11-26T17:09:27.802Z,23.71
2018-11-26T17:10:27.828Z,23.67
2018-11-26T17:12:21.269Z,23.74
2018-11-26T17:13:21.302Z,23.76
2018-11-26T17:15:15.758Z,23.67
2018-11-26T17:16:15.788Z,23.67
2018-11-26T17:18:09.229Z,23.71
2018-11-26T17:19:09.288Z,23.67
2018-11-26T17:21:02.714Z,23.74
2018-11-26T17:22:02.739Z,23.76
2018-11-26T17:23:56.219Z,23.84
2018-11-26T17:24:56.234Z,23.74
2018-11-26T17:26:49.689Z,23.74
2018-11-26T17:27:49.725Z,23.85
2018-11-26T17:29:43.186Z,23.82
2018-11-26T17:30:43.211Z,23.82
2018-11-26T17:32:36.664Z,23.92
2018-11-26T17:33:36.700Z,23.84
2018-11-26T17:35:29.654Z,23.77
2018-11-26T17:36:29.680Z,23.88
2018-11-26T17:38:22.628Z,23.74
2018-11-26T17:39:22.661Z,23.79
2018-11-26T17:41:16.122Z,23.88
2018-11-26T17:42:16.147Z,23.79
2018-11-26T17:44:09.589Z,23.74
2018-11-26T17:45:09.623Z,23.86
2018-11-26T17:47:02.582Z,23.94
2018-11-26T17:48:02.609Z,23.84
2018-11-26T17:49:55.567Z,23.95
2018-11-26T17:50:55.596Z,23.92
2018-11-26T17:52:49.103Z,23.92
2018-11-26T17:53:49.084Z,23.89
2018-11-26T17:55:42.536Z,23.85
2018-11-26T17:56:42.560Z,23.94
2018-11-26T17:58:36.018Z,23.86
2018-11-26T17:59:36.051Z,23.91
2018-11-26T18:01:29.502Z,23.81
2018-11-26T18:02:29.525Z,23.92
2018-11-26T18:04:22.977Z,23.95
2018-11-26T18:05:23.001Z,23.95
2018-11-26T18:07:15.954Z,23.89
2018-11-26T18:08:15.990Z,23.99
2018-11-26T18:10:08.946Z,23.89
2018-11-26T18:11:08.971Z,23.85
2018-11-26T18:13:02.424Z,23.92
2018-11-26T18:14:02.459Z,23.96
2018-11-26T18:15:55.920Z,24.03
2018-11-26T18:16:55.946Z,24.03
2018-11-26T18:18:49.387Z,24.00
2018-11-26T18:19:49.425Z,23.96
2018-11-26T18:21:42.383Z,24.04
2018-11-26T18:22:42.404Z,23.95
2018-11-26T18:24:35.867Z,24.03
2018-11-26T18:25:35.895Z,24.01
2018-11-26T18:27:28.847Z,24.00
2018-11-26T18:28:28.878Z,24.00
2018-11-26T18:30:21.842Z,24.10
2018-11-26T18:31:21.863Z,24.06
2018-11-26T18:33:15.316Z,24.10
2018-11-26T18:34:15.350Z,24.09